createdAt,value
2023-11-27T00:01:51.274Z,70.60
2023-11-27T00:04:17.953Z,71.12
2023-11-27T00:06:44.473Z,70.97
2023-11-27T00:09:11.695Z,70.79
2023-11-27T00:11:40.039Z,71.08
2023-11-27T00:14:07.676Z,70.76
2023-11-27T00:16:34.386Z,70.65
2023-11-27T00:19:00.953Z,70.63
2023-11-27T00:21:27.624Z,70.68
2023-11-27T00:23:54.628Z,70.75
2023-11-27T00:26:21.247Z,70.74
2023-11-27T00:28:55.009Z,70.64
2023-11-27T00:31:21.598Z,70.96
2023-11-27T00:33:49.031Z,70.53
2023-11-27T00:36:15.633Z,70.38
2023-11-27T00:38:42.276Z,70.93
2023-11-27T00:41:09.120Z,70.48
2023-11-27T00:43:35.747Z,71.03
2023-11-27T00:46:02.346Z,70.08
2023-11-27T00:48:28.947Z,70.98
2023-11-27T00:50:55.465Z,70.79
2023-11-27T00:53:21.969Z,70.59
2023-11-27T00:55:48.473Z,70.87
2023-11-27T00:58:15.055Z,70.96
2023-11-27T01:00:41.773Z,70.73
2023-11-27T01:03:08.491Z,70.95
2023-11-27T01:05:35.093Z,70.64
2023-11-27T01:08:01.720Z,71.16
2023-11-27T01:10:28.236Z,71.36
2023-11-27T01:12:55.076Z,71.15
2023-11-27T01:15:22.957Z,71.63
2023-11-27T01:17:49.687Z,70.88
2023-11-27T01:20:16.630Z,70.68
2023-11-27T01:22:43.187Z,71.24
2023-11-27T01:25:11.169Z,70.95
2023-11-27T01:27:37.709Z,70.90
2023-11-27T01:30:05.194Z,71.21
2023-11-27T01:32:32.120Z,70.71
2023-11-27T01:34:59.298Z,70.99
2023-11-27T01:37:25.832Z,71.34
2023-11-27T01:39:52.407Z,70.94
2023-11-27T01:42:18.928Z,70.97
2023-11-27T01:44:45.451Z,70.98
2023-11-27T01:47:12.033Z,70.68
2023-11-27T01:49:39.059Z,70.55
2023-11-27T01:52:07.851Z,70.35
2023-11-27T01:54:37.834Z,70.85
2023-11-27T01:57:04.515Z,71.15
2023-11-27T01:59:31.567Z,71.03
2023-11-27T02:01:58.784Z,71.23
2023-11-27T02:04:25.551Z,71.24
2023-11-27T02:06:52.287Z,70.61
2023-11-27T02:09:18.904Z,71.16
2023-11-27T02:11:48.323Z,71.20
2023-11-27T02:14:16.748Z,71.30
2023-11-27T02:16:47.237Z,70.97
2023-11-27T02:19:17.164Z,70.72
2023-11-27T02:21:44.699Z,70.82
2023-11-27T02:24:11.235Z,70.95
2023-11-27T02:26:37.730Z,71.20
2023-11-27T02:29:05.489Z,71.10
2023-11-27T02:31:32.473Z,71.20
2023-11-27T02:33:59.241Z,71.38
2023-11-27T02:36:27.532Z,71.23
2023-11-27T02:38:54.161Z,71.46
2023-11-27T02:41:20.698Z,71.56
2023-11-27T02:43:47.343Z,71.35
2023-11-27T02:46:14.618Z,71.08
2023-11-27T02:48:41.168Z,71.41
2023-11-27T02:51:07.834Z,71.48
2023-11-27T02:53:34.344Z,71.30
2023-11-27T02:56:00.962Z,71.28
2023-11-27T02:58:27.479Z,71.51
2023-11-27T03:00:54.136Z,71.50
2023-11-27T03:03:20.754Z,71.78
2023-11-27T03:05:47.264Z,72.15
2023-11-27T03:08:15.860Z,71.91
2023-11-27T03:10:42.785Z,71.81
2023-11-27T03:13:10.430Z,71.87
2023-11-27T03:15:36.974Z,71.61
2023-11-27T03:18:03.543Z,71.55
2023-11-27T03:20:30.032Z,71.54
2023-11-27T03:22:56.551Z,71.84
2023-11-27T03:25:23.077Z,71.37
2023-11-27T03:27:49.667Z,71.57
2023-11-27T03:30:16.240Z,71.71
2023-11-27T03:32:42.823Z,71.98
2023-11-27T03:35:09.735Z,71.96
2023-11-27T03:37:36.467Z,71.80
2023-11-27T03:40:04.275Z,72.07
2023-11-27T03:42:31.456Z,72.16
2023-11-27T03:44:57.944Z,71.89
2023-11-27T03:47:25.058Z,72.50
2023-11-27T03:49:51.550Z,72.20
2023-11-27T03:52:18.079Z,72.70
2023-11-27T03:54:44.613Z,71.71
2023-11-27T03:57:11.129Z,71.98
2023-11-27T03:59:37.667Z,72.04
2023-11-27T04:02:04.407Z,72.02
2023-11-27T04:04:30.974Z,72.14
2023-11-27T04:06:58.249Z,72.05
2023-11-27T04:09:24.893Z,72.21
2023-11-27T04:11:51.461Z,72.27
2023-11-27T04:14:19.664Z,71.80
2023-11-27T04:16:46.365Z,72.08
2023-11-27T04:19:12.983Z,72.19
2023-11-27T04:21:39.512Z,72.14
2023-11-27T04:24:06.686Z,72.28
2023-11-27T04:26:33.259Z,71.96
2023-11-27T04:29:00.165Z,72.34
2023-11-27T04:31:26.824Z,72.41
2023-11-27T04:33:53.383Z,72.40
2023-11-27T04:36:20.048Z,72.58
2023-11-27T04:38:46.627Z,72.12
2023-11-27T04:41:13.637Z,72.21
2023-11-27T04:43:40.915Z,71.84
2023-11-27T04:46:08.760Z,72.04
2023-11-27T04:48:35.683Z,72.04
2023-11-27T04:51:02.810Z,72.22
2023-11-27T04:53:30.806Z,72.16
2023-11-27T04:55:57.408Z,71.76
2023-11-27T04:58:26.068Z,71.95
2023-11-27T05:00:52.934Z,71.82
2023-11-27T05:03:19.538Z,71.98
2023-11-27T05:05:46.052Z,71.72
2023-11-27T05:08:12.552Z,72.11
2023-11-27T05:10:40.378Z,71.91
2023-11-27T05:13:07.452Z,72.18
2023-11-27T05:15:33.964Z,72.25
2023-11-27T05:18:00.552Z,72.16
2023-11-27T05:20:27.347Z,72.05
2023-11-27T05:22:53.858Z,72.16
2023-11-27T05:25:20.387Z,71.88
2023-11-27T05:27:47.076Z,72.21
2023-11-27T05:30:13.671Z,72.17
2023-11-27T05:32:40.270Z,72.06
2023-11-27T05:35:08.579Z,72.17
2023-11-27T05:37:35.105Z,72.33
2023-11-27T05:40:01.645Z,72.45
2023-11-27T05:42:28.447Z,72.26
2023-11-27T05:45:00.440Z,72.07
2023-11-27T05:47:27.200Z,72.32
2023-11-27T05:49:54.173Z,72.09
2023-11-27T05:52:20.717Z,72.06
2023-11-27T05:54:47.239Z,72.30
2023-11-27T05:57:14.201Z,72.33
2023-11-27T05:59:40.701Z,72.55
2023-11-27T06:02:07.647Z,72.38
2023-11-27T06:04:34.256Z,72.75
2023-11-27T06:07:00.866Z,72.58
2023-11-27T06:09:27.379Z,72.75
2023-11-27T06:11:54.455Z,72.87
2023-11-27T06:14:20.953Z,73.10
2023-11-27T06:16:47.587Z,72.35
2023-11-27T06:19:14.780Z,73.06
2023-11-27T06:21:41.365Z,72.64
2023-11-27T06:24:09.434Z,72.99
2023-11-27T06:26:35.959Z,72.95
2023-11-27T06:29:03.438Z,72.76
2023-11-27T06:31:30.017Z,73.04
2023-11-27T06:33:57.057Z,73.34
2023-11-27T06:36:23.618Z,72.84
2023-11-27T06:38:50.125Z,73.20
2023-11-27T06:41:16.621Z,73.25
2023-11-27T06:43:43.108Z,73.02
2023-11-27T06:46:13.094Z,73.62
2023-11-27T06:48:39.819Z,73.15
2023-11-27T06:51:06.474Z,73.32
2023-11-27T06:53:33.330Z,73.23
2023-11-27T06:56:00.400Z,73.20
2023-11-27T06:58:26.973Z,73.26
2023-11-27T07:00:53.509Z,73.30
2023-11-27T07:03:20.089Z,73.00
2023-11-27T07:05:46.611Z,73.10
2023-11-27T07:08:13.137Z,72.91
2023-11-27T07:10:39.702Z,72.86
2023-11-27T07:13:07.040Z,73.13
2023-11-27T07:15:33.547Z,73.08
2023-11-27T07:18:10.147Z,73.08
2023-11-27T07:20:46.223Z,73.34
2023-11-27T07:23:13.347Z,73.49
2023-11-27T07:25:40.915Z,73.83
2023-11-27T07:28:07.570Z,73.78
2023-11-27T07:30:34.101Z,73.44
2023-11-27T07:33:03.597Z,73.69
2023-11-27T07:35:30.243Z,73.31
2023-11-27T07:37:56.749Z,73.28
2023-11-27T07:40:23.267Z,73.35
2023-11-27T07:42:49.963Z,73.32
2023-11-27T07:45:16.496Z,73.23
2023-11-27T07:47:43.085Z,73.31
2023-11-27T07:50:10.931Z,73.46
2023-11-27T07:52:37.844Z,73.14
2023-11-27T07:55:06.087Z,73.37
2023-11-27T07:57:33.753Z,73.25
2023-11-27T08:00:01.122Z,73.50
2023-11-27T08:02:27.639Z,73.50
2023-11-27T08:04:54.324Z,73.31
2023-11-27T08:07:21.015Z,73.30
2023-11-27T08:09:47.832Z,73.06
2023-11-27T08:12:15.297Z,72.75
2023-11-27T08:14:41.800Z,73.06
2023-11-27T08:17:08.779Z,73.00
2023-11-27T08:19:35.482Z,72.99
2023-11-27T08:22:04.392Z,72.93
2023-11-27T08:24:33.298Z,72.87
2023-11-27T08:27:02.555Z,72.78
2023-11-27T08:29:32.015Z,72.90
2023-11-27T08:31:59.853Z,72.75
2023-11-27T08:34:27.134Z,73.17
2023-11-27T08:36:54.058Z,72.89
2023-11-27T08:39:21.818Z,72.85
2023-11-27T08:41:50.346Z,72.80
2023-11-27T08:44:16.834Z,72.90
2023-11-27T08:46:44.347Z,72.83
2023-11-27T08:49:13.717Z,72.79
2023-11-27T08:51:47.221Z,72.57
2023-11-27T08:54:13.792Z,71.94
2023-11-27T08:56:42.630Z,71.94
2023-11-27T08:59:09.651Z,71.57
2023-11-27T09:01:36.639Z,71.76
2023-11-27T09:04:04.136Z,71.92
2023-11-27T09:06:30.712Z,71.96
2023-11-27T09:08:57.479Z,71.84
2023-11-27T09:11:26.590Z,72.43
2023-11-27T09:13:53.459Z,72.32
2023-11-27T09:16:20.200Z,72.36
2023-11-27T09:18:47.443Z,72.48
2023-11-27T09:21:14.094Z,72.57
2023-11-27T09:23:40.586Z,72.75
2023-11-27T09:26:07.273Z,72.87
2023-11-27T09:28:33.995Z,72.47
2023-11-27T09:31:02.630Z,72.69
2023-11-27T09:33:29.401Z,72.90
2023-11-27T09:35:55.970Z,73.00
2023-11-27T09:38:22.456Z,73.05
2023-11-27T09:40:49.005Z,73.07
2023-11-27T09:43:15.680Z,73.04
2023-11-27T09:45:42.498Z,72.79
2023-11-27T09:48:10.094Z,72.68
2023-11-27T09:50:36.809Z,72.86
2023-11-27T09:53:08.030Z,72.86
2023-11-27T09:55:41.214Z,72.62
2023-11-27T09:58:14.451Z,72.59
2023-11-27T10:00:43.004Z,72.49
2023-11-27T10:03:10.118Z,72.43
2023-11-27T10:05:38.639Z,72.84
2023-11-27T10:08:05.480Z,72.46
2023-11-27T10:10:32.076Z,72.28
2023-11-27T10:13:04.546Z,72.23
2023-11-27T10:15:35.176Z,72.22
2023-11-27T10:18:04.950Z,72.04
2023-11-27T10:20:32.741Z,72.13
2023-11-27T10:22:59.944Z,71.96
2023-11-27T10:25:26.568Z,71.79
2023-11-27T10:27:58.777Z,72.29
2023-11-27T10:30:26.581Z,72.34
2023-11-27T10:32:53.616Z,72.37
2023-11-27T10:35:21.449Z,72.22
2023-11-27T10:37:50.974Z,72.31
2023-11-27T10:40:18.973Z,72.37
2023-11-27T10:42:49.390Z,72.72
2023-11-27T10:45:17.913Z,72.46
2023-11-27T10:47:46.203Z,72.75
2023-11-27T10:50:14.451Z,72.84
2023-11-27T10:52:42.849Z,73.11
2023-11-27T10:55:10.469Z,73.18
2023-11-27T10:57:38.749Z,73.03
2023-11-27T11:00:06.909Z,72.68
2023-11-27T11:02:36.095Z,72.55
2023-11-27T11:05:04.268Z,72.59
2023-11-27T11:07:39.724Z,72.89
2023-11-27T11:10:10.245Z,72.49
2023-11-27T11:12:41.518Z,72.67
2023-11-27T11:15:14.880Z,72.75
2023-11-27T11:18:02.580Z,72.51
2023-11-27T11:20:35.000Z,72.45
2023-11-27T11:23:23.281Z,73.04
2023-11-27T11:26:06.001Z,72.84
2023-11-27T11:28:37.061Z,72.69
2023-11-27T11:31:25.820Z,72.80
2023-11-27T11:33:52.392Z,72.53
2023-11-27T11:36:32.597Z,72.94
2023-11-27T11:38:59.913Z,72.92
2023-11-27T11:41:29.835Z,72.95
2023-11-27T11:43:59.729Z,73.27
2023-11-27T11:46:29.784Z,73.01
2023-11-27T11:48:58.506Z,73.21
2023-11-27T11:51:27.985Z,72.67
2023-11-27T11:53:54.579Z,73.30
2023-11-27T11:56:25.702Z,73.03
2023-11-27T11:59:02.138Z,72.86
2023-11-27T12:01:34.118Z,73.32
2023-11-27T12:04:06.491Z,73.22
2023-11-27T12:06:33.923Z,73.51
2023-11-27T12:09:01.608Z,73.78
2023-11-27T12:11:32.372Z,73.73
2023-11-27T12:13:59.225Z,74.11
2023-11-27T12:16:26.408Z,73.35
2023-11-27T12:18:53.300Z,73.98
2023-11-27T12:21:25.322Z,73.79
2023-11-27T12:23:53.179Z,73.66
2023-11-27T12:26:26.402Z,73.89
2023-11-27T12:28:53.948Z,73.32
2023-11-27T12:31:22.044Z,73.27
2023-11-27T12:33:49.626Z,73.17
2023-11-27T12:36:21.756Z,72.80
2023-11-27T12:38:54.763Z,72.90
2023-11-27T12:41:33.585Z,73.02
2023-11-27T12:44:15.399Z,73.37
2023-11-27T12:46:51.422Z,72.79
2023-11-27T12:49:23.318Z,73.24
2023-11-27T12:51:53.575Z,73.29
2023-11-27T12:54:22.796Z,73.20
2023-11-27T12:56:50.926Z,73.30
2023-11-27T12:59:17.675Z,73.22
2023-11-27T13:02:00.516Z,73.48
2023-11-27T13:04:31.924Z,73.47
2023-11-27T13:07:06.884Z,73.85
2023-11-27T13:09:33.942Z,73.59
2023-11-27T13:12:16.215Z,73.87
2023-11-27T13:14:47.375Z,73.92
2023-11-27T13:17:20.936Z,73.75
2023-11-27T13:19:51.195Z,73.93
2023-11-27T13:22:18.734Z,74.19
2023-11-27T13:24:46.488Z,74.13
2023-11-27T13:27:17.427Z,73.75
2023-11-27T13:29:47.733Z,74.15
2023-11-27T13:32:15.976Z,74.00
2023-11-27T13:34:56.518Z,74.28
2023-11-27T13:37:28.631Z,74.76
2023-11-27T13:39:58.406Z,74.45
2023-11-27T13:42:31.878Z,74.89
2023-11-27T13:44:58.971Z,75.00
2023-11-27T13:47:25.922Z,74.35
2023-11-27T13:49:59.069Z,75.39
2023-11-27T13:52:30.928Z,75.07
2023-11-27T13:54:59.308Z,75.21
2023-11-27T13:57:28.823Z,75.46
2023-11-27T13:59:58.173Z,75.20
2023-11-27T14:02:33.077Z,75.46
2023-11-27T14:05:09.899Z,75.46
2023-11-27T14:07:42.230Z,75.49
2023-11-27T14:10:23.674Z,76.46
2023-11-27T14:12:56.724Z,76.09
2023-11-27T14:15:23.307Z,75.98
2023-11-27T14:18:18.790Z,75.90
2023-11-27T14:21:04.118Z,75.92
2023-11-27T14:23:42.562Z,76.08
2023-11-27T14:26:22.749Z,76.00
2023-11-27T14:28:49.428Z,76.01
2023-11-27T14:31:19.149Z,76.02
2023-11-27T14:33:49.143Z,75.83
2023-11-27T14:36:15.923Z,76.19
2023-11-27T14:38:43.433Z,76.41
2023-11-27T14:41:10.008Z,76.42
2023-11-27T14:43:36.564Z,76.81
2023-11-27T14:46:05.110Z,76.70
2023-11-27T14:48:33.477Z,76.92
2023-11-27T14:51:01.150Z,77.06
2023-11-27T14:53:27.803Z,77.14
2023-11-27T14:55:54.715Z,77.00
2023-11-27T14:58:25.297Z,77.24
2023-11-27T15:00:52.523Z,77.37
2023-11-27T15:03:26.638Z,77.02
2023-11-27T15:05:54.020Z,77.48
2023-11-27T15:08:23.659Z,77.10
2023-11-27T15:10:50.671Z,77.24
2023-11-27T15:13:21.155Z,77.30
2023-11-27T15:15:54.756Z,77.48
2023-11-27T15:18:22.455Z,77.69
2023-11-27T15:20:49.091Z,77.12
2023-11-27T15:23:15.693Z,77.41
2023-11-27T15:25:42.501Z,77.64
2023-11-27T15:28:09.629Z,77.39
2023-11-27T15:30:37.592Z,77.35
2023-11-27T15:33:06.209Z,77.25
2023-11-27T15:35:35.802Z,77.63
2023-11-27T15:38:04.070Z,77.21
2023-11-27T15:40:33.771Z,77.57
2023-11-27T15:43:00.479Z,77.56
2023-11-27T15:45:28.256Z,77.60
2023-11-27T15:47:57.788Z,77.42
2023-11-27T15:50:30.913Z,77.47
2023-11-27T15:52:59.531Z,77.46
2023-11-27T15:55:26.056Z,78.02
2023-11-27T15:57:52.654Z,77.71
2023-11-27T16:00:21.678Z,78.13
2023-11-27T16:02:49.304Z,77.74
2023-11-27T16:05:18.767Z,77.86
2023-11-27T16:07:45.877Z,77.75
2023-11-27T16:10:16.710Z,78.07
2023-11-27T16:12:44.126Z,77.50
2023-11-27T16:15:13.771Z,77.88
2023-11-27T16:17:53.178Z,77.61
2023-11-27T16:20:25.973Z,77.28
2023-11-27T16:22:52.719Z,77.32
2023-11-27T16:25:19.522Z,77.81
2023-11-27T16:27:49.187Z,77.93
2023-11-27T16:30:19.069Z,77.46
2023-11-27T16:32:46.562Z,77.38
2023-11-27T16:35:16.134Z,77.38
2023-11-27T16:37:43.421Z,77.28
2023-11-27T16:40:15.985Z,77.51
2023-11-27T16:42:46.707Z,77.17
2023-11-27T16:45:13.849Z,77.32
2023-11-27T16:47:40.506Z,77.23
2023-11-27T16:50:13.890Z,77.48
2023-11-27T16:52:42.194Z,77.28
2023-11-27T16:55:08.908Z,77.75
2023-11-27T16:57:35.451Z,77.58
2023-11-27T17:00:02.302Z,78.06
2023-11-27T17:02:28.963Z,77.40
2023-11-27T17:04:55.709Z,77.72
2023-11-27T17:07:23.216Z,77.90
2023-11-27T17:09:49.818Z,77.64
2023-11-27T17:12:16.333Z,77.95
2023-11-27T17:14:42.869Z,77.82
2023-11-27T17:17:09.670Z,77.50
2023-11-27T17:19:36.415Z,78.28
2023-11-27T17:22:03.006Z,77.58
2023-11-27T17:24:33.020Z,77.59
2023-11-27T17:26:59.546Z,77.94
2023-11-27T17:29:26.074Z,77.75
2023-11-27T17:31:58.021Z,77.44
2023-11-27T17:34:31.653Z,78.01
2023-11-27T17:36:58.186Z,77.71
2023-11-27T17:39:26.307Z,77.99
2023-11-27T17:41:53.419Z,77.94
2023-11-27T17:44:22.937Z,77.90
2023-11-27T17:46:49.644Z,77.73
2023-11-27T17:49:16.236Z,78.29
2023-11-27T17:51:47.469Z,77.52
2023-11-27T17:54:14.699Z,77.15
2023-11-27T17:56:43.574Z,77.53
2023-11-27T17:59:16.057Z,77.82
2023-11-27T18:01:43.798Z,77.47
2023-11-27T18:04:10.805Z,77.84
2023-11-27T18:06:41.966Z,77.88
2023-11-27T18:09:12.519Z,77.54
2023-11-27T18:11:39.952Z,77.16
2023-11-27T18:14:08.651Z,77.33
2023-11-27T18:16:35.315Z,77.20
2023-11-27T18:19:01.874Z,77.83
2023-11-27T18:21:28.423Z,77.32
2023-11-27T18:23:55.253Z,77.49
2023-11-27T18:26:21.778Z,77.91
2023-11-27T18:28:48.432Z,77.99
2023-11-27T18:31:15.582Z,77.62
2023-11-27T18:33:42.214Z,77.77
2023-11-27T18:36:09.309Z,77.73
2023-11-27T18:38:35.900Z,78.03
2023-11-27T18:41:02.385Z,77.90
2023-11-27T18:43:28.997Z,77.73
2023-11-27T18:45:55.856Z,77.74
2023-11-27T18:48:22.450Z,77.49
2023-11-27T18:50:49.408Z,77.90
2023-11-27T18:53:15.984Z,77.89
2023-11-27T18:55:45.673Z,77.48
2023-11-27T18:58:15.362Z,77.55
2023-11-27T19:00:42.071Z,77.51
2023-11-27T19:03:17.391Z,77.65
2023-11-27T19:05:45.739Z,77.85
2023-11-27T19:08:12.246Z,77.69
2023-11-27T19:10:38.751Z,78.02
2023-11-27T19:13:09.723Z,77.91
2023-11-27T19:15:40.901Z,78.12
2023-11-27T19:18:08.619Z,78.00
2023-11-27T19:20:35.288Z,78.08
2023-11-27T19:23:01.820Z,78.62
2023-11-27T19:25:30.026Z,78.02
2023-11-27T19:28:00.001Z,78.25
2023-11-27T19:30:30.002Z,77.68
2023-11-27T19:32:56.513Z,77.82
2023-11-27T19:35:23.064Z,78.12
2023-11-27T19:37:49.623Z,77.94
2023-11-27T19:40:16.700Z,77.85
2023-11-27T19:42:45.040Z,78.21
2023-11-27T19:45:11.778Z,78.24
2023-11-27T19:47:38.924Z,78.28
2023-11-27T19:50:09.716Z,78.44
2023-11-27T19:52:36.580Z,77.95
2023-11-27T19:55:04.777Z,78.46
2023-11-27T19:57:31.289Z,78.54
2023-11-27T19:59:57.828Z,78.22
2023-11-27T20:02:24.808Z,77.95
2023-11-27T20:04:51.933Z,78.34
2023-11-27T20:07:19.130Z,78.07
2023-11-27T20:09:45.833Z,77.85
2023-11-27T20:12:12.955Z,77.73
2023-11-27T20:14:39.457Z,78.25
2023-11-27T20:17:06.274Z,78.25
2023-11-27T20:19:34.081Z,78.20
2023-11-27T20:22:00.793Z,78.83
2023-11-27T20:24:27.707Z,78.16
2023-11-27T20:26:54.240Z,77.94
2023-11-27T20:29:20.737Z,78.07
2023-11-27T20:31:47.355Z,78.31
2023-11-27T20:34:13.898Z,77.65
2023-11-27T20:36:40.446Z,77.93
2023-11-27T20:39:12.043Z,78.22
2023-11-27T20:41:41.389Z,77.96
2023-11-27T20:44:08.041Z,78.01
2023-11-27T20:46:35.209Z,78.20
2023-11-27T20:49:02.039Z,77.75
2023-11-27T20:51:29.202Z,78.03
2023-11-27T20:53:56.407Z,77.95
2023-11-27T20:56:23.352Z,77.80
2023-11-27T20:58:51.044Z,78.14
2023-11-27T21:01:23.715Z,77.89
2023-11-27T21:03:52.443Z,77.53
2023-11-27T21:06:23.355Z,78.05
2023-11-27T21:08:50.114Z,77.53
2023-11-27T21:11:19.213Z,77.67
2023-11-27T21:13:45.855Z,77.83
2023-11-27T21:16:12.403Z,77.54
2023-11-27T21:18:38.927Z,77.57
2023-11-27T21:21:05.485Z,77.65
2023-11-27T21:23:32.938Z,77.66
2023-11-27T21:25:59.514Z,77.60
2023-11-27T21:28:26.176Z,77.98
2023-11-27T21:30:52.750Z,77.56
2023-11-27T21:33:19.345Z,77.69
2023-11-27T21:35:45.843Z,77.45
2023-11-27T21:38:12.370Z,77.60
2023-11-27T21:40:38.916Z,77.90
2023-11-27T21:43:05.557Z,77.52
2023-11-27T21:45:32.129Z,77.68
2023-11-27T21:47:58.647Z,78.21
2023-11-27T21:50:26.132Z,78.22
2023-11-27T21:52:52.642Z,78.21
2023-11-27T21:55:19.413Z,77.38
2023-11-27T21:57:46.146Z,77.64
2023-11-27T22:00:14.321Z,77.40
2023-11-27T22:02:41.830Z,77.57
2023-11-27T22:05:08.868Z,77.63
2023-11-27T22:07:35.956Z,77.44
2023-11-27T22:10:02.518Z,77.41
2023-11-27T22:12:28.993Z,78.05
2023-11-27T22:14:55.493Z,77.95
2023-11-27T22:17:22.230Z,77.60
2023-11-27T22:19:48.793Z,78.57
2023-11-27T22:22:15.308Z,77.96
2023-11-27T22:24:41.831Z,77.95
2023-11-27T22:27:08.519Z,77.80
2023-11-27T22:29:35.021Z,77.67
2023-11-27T22:32:01.746Z,77.50
2023-11-27T22:34:28.337Z,77.41
2023-11-27T22:36:54.874Z,77.37
2023-11-27T22:39:21.581Z,77.68
2023-11-27T22:41:48.355Z,78.15
2023-11-27T22:44:14.913Z,77.89
2023-11-27T22:46:41.540Z,77.90
2023-11-27T22:49:09.060Z,77.65
2023-11-27T22:51:36.554Z,77.89
2023-11-27T22:54:03.162Z,77.48
2023-11-27T22:56:32.921Z,77.70
2023-11-27T22:59:10.940Z,77.58
2023-11-27T23:01:41.770Z,77.71
2023-11-27T23:04:08.630Z,77.25
2023-11-27T23:06:38.177Z,77.43
2023-11-27T23:09:05.737Z,77.38
2023-11-27T23:11:32.235Z,77.08
2023-11-27T23:13:58.859Z,77.44
2023-11-27T23:16:25.668Z,77.71
2023-11-27T23:18:52.297Z,77.54
2023-11-27T23:21:18.775Z,76.96
2023-11-27T23:23:45.635Z,77.85
2023-11-27T23:26:12.247Z,77.74
2023-11-27T23:28:38.764Z,77.75
2023-11-27T23:31:05.432Z,77.42
2023-11-27T23:33:35.278Z,77.46
2023-11-27T23:36:01.930Z,77.32
2023-11-27T23:38:28.523Z,77.66
2023-11-27T23:40:55.374Z,77.57
2023-11-27T23:43:22.247Z,77.89
2023-11-27T23:45:48.861Z,77.58
2023-11-27T23:48:15.478Z,77.98
2023-11-27T23:50:43.964Z,77.73
2023-11-27T23:53:11.447Z,77.59
2023-11-27T23:55:38.892Z,77.51
2023-11-27T23:58:05.865Z,77.38
